Time;durP1;ratioP1;P1;durP2;ratioP2;P2;SDS_P1;SDS_P2;PMS_P1;PMS_P2;Temp;Humidity;BMP_temperature;BMP_pressure;BME280_temperature;BME280_humidity;BME280_pressure;Samples;Min_cycle;Max_cycle;Signal;HPM_P1;HPM_P2
2021/04/19 00:01:04;;;;;;;5.90;5.28;;;10.60;99.90;;;;;;5091485;28;20028;-72
2021/04/19 00:03:30;;;;;;;8.57;6.28;;;10.50;99.90;;;;;;5092058;28;20123;-72
2021/04/19 00:05:57;;;;;;;7.95;5.63;;;10.50;99.90;;;;;;5092931;28;20082;-72
2021/04/19 00:08:22;;;;;;;8.90;5.90;;;10.60;99.90;;;;;;5093350;28;20055;-72
2021/04/19 00:10:49;;;;;;;7.60;5.75;;;10.60;99.90;;;;;;5091968;28;20059;-72
2021/04/19 00:13:15;;;;;;;6.90;5.07;;;10.40;99.90;;;;;;5092341;28;20388;-72
2021/04/19 00:15:41;;;;;;;6.82;5.20;;;10.30;99.90;;;;;;5073630;28;20132;-71
2021/04/19 00:18:06;;;;;;;7.78;4.85;;;10.40;99.90;;;;;;5072528;28;20060;-72
2021/04/19 00:20:32;;;;;;;7.10;5.22;;;10.40;99.90;;;;;;5054969;28;20026;-71
2021/04/19 00:22:58;;;;;;;8.68;5.40;;;10.40;99.90;;;;;;5072476;28;20389;-72
2021/04/19 00:25:24;;;;;;;7.07;5.47;;;10.50;99.90;;;;;;5072758;28;20374;-72
2021/04/19 00:27:50;;;;;;;6.13;5.05;;;10.40;99.90;;;;;;5072502;28;20032;-71
2021/04/19 00:30:16;;;;;;;7.68;5.13;;;10.40;99.90;;;;;;5071766;28;20415;-72
2021/04/19 00:32:42;;;;;;;5.93;5.03;;;10.40;99.90;;;;;;5072282;28;20491;-71
2021/04/19 00:35:09;;;;;;;5.80;5.20;;;10.40;99.90;;;;;;5071962;28;20187;-72
2021/04/19 00:37:35;;;;;;;5.30;4.75;;;10.40;99.90;;;;;;5072410;28;20170;-71
2021/04/19 00:40:04;;;;;;;5.40;4.90;;;10.50;99.90;;;;;;5071900;28;20043;-71
2021/04/19 00:42:30;;;;;;;6.30;5.20;;;10.50;99.90;;;;;;5072052;28;20036;-71
2021/04/19 00:44:56;;;;;;;6.10;4.75;;;10.40;99.90;;;;;;5071907;28;20040;-72
2021/04/19 00:47:21;;;;;;;6.53;5.40;;;10.40;99.90;;;;;;5054157;28;20025;-71
2021/04/19 00:49:47;;;;;;;5.82;4.57;;;10.40;99.90;;;;;;5054293;28;20028;-71
2021/04/19 00:52:13;;;;;;;6.07;5.47;;;10.40;99.90;;;;;;5053542;28;20415;-71
2021/04/19 00:54:38;;;;;;;6.40;5.40;;;10.40;99.90;;;;;;5071735;28;20457;-71
2021/04/19 00:57:05;;;;;;;6.05;5.40;;;10.50;99.90;;;;;;5053609;28;20062;-71
2021/04/19 00:59:31;;;;;;;5.57;4.95;;;10.50;99.90;;;;;;5071713;28;20116;-71
2021/04/19 01:01:57;;;;;;;6.95;5.18;;;10.40;99.90;;;;;;5071474;28;20025;-75
2021/04/19 01:04:23;;;;;;;5.72;4.30;;;10.40;99.90;;;;;;5072065;28;20055;-71
2021/04/19 01:06:49;;;;;;;5.35;4.82;;;10.20;99.90;;;;;;5071913;28;20055;-71
2021/04/19 01:09:16;;;;;;;5.70;4.47;;;10.10;99.90;;;;;;5053243;28;20024;-71
2021/04/19 01:11:41;;;;;;;5.03;4.38;;;10.20;99.90;;;;;;5071936;28;20024;-70
2021/04/19 01:14:07;;;;;;;4.55;3.90;;;10.20;99.90;;;;;;5070654;28;20132;-71
2021/04/19 01:16:33;;;;;;;4.60;4.03;;;10.30;99.90;;;;;;5071547;28;20443;-71
2021/04/19 01:18:58;;;;;;;4.75;3.60;;;10.20;99.90;;;;;;5070916;28;20103;-71
2021/04/19 01:21:24;;;;;;;3.72;3.17;;;10.20;99.90;;;;;;5053491;28;20031;-71
2021/04/19 01:23:50;;;;;;;4.47;3.38;;;10.20;99.90;;;;;;5071589;28;20081;-71
2021/04/19 01:26:16;;;;;;;4.57;3.45;;;10.20;99.90;;;;;;5070548;28;20386;-71
2021/04/19 01:28:41;;;;;;;5.55;3.33;;;10.20;99.90;;;;;;5071344;28;20418;-71
2021/04/19 01:31:07;;;;;;;5.38;4.15;;;10.20;99.90;;;;;;5052804;28;20079;-71
2021/04/19 01:33:33;;;;;;;7.45;4.75;;;10.20;99.90;;;;;;5071551;28;20036;-70
2021/04/19 01:35:59;;;;;;;4.40;3.92;;;10.20;99.90;;;;;;5070262;28;20103;-72
2021/04/19 01:38:25;;;;;;;4.22;3.83;;;10.20;99.90;;;;;;5053267;28;20029;-71
2021/04/19 01:40:54;;;;;;;4.65;3.90;;;10.20;99.90;;;;;;5053241;28;20028;-71
2021/04/19 01:43:21;;;;;;;4.32;3.92;;;10.30;99.90;;;;;;5070643;28;20024;-71
2021/04/19 01:45:48;;;;;;;4.22;3.80;;;10.20;99.90;;;;;;5070955;28;20101;-71
2021/04/19 01:48:14;;;;;;;6.30;4.68;;;10.20;99.90;;;;;;5070722;28;20131;-71
2021/04/19 01:50:39;;;;;;;4.68;3.97;;;10.20;99.90;;;;;;5071087;28;20028;-71
2021/04/19 01:53:05;;;;;;;4.88;4.25;;;10.20;99.90;;;;;;5070131;28;20058;-71
2021/04/19 01:55:33;;;;;;;4.70;4.30;;;10.20;99.90;;;;;;5052814;28;20028;-71
2021/04/19 01:58:04;;;;;;;4.78;4.13;;;10.20;99.90;;;;;;5070897;28;20024;-70
2021/04/19 02:00:32;;;;;;;5.32;4.70;;;10.20;99.90;;;;;;5052981;28;20021;-71
2021/04/19 02:03:07;;;;;;;6.90;5.13;;;10.20;99.90;;;;;;5070487;28;20036;-71
2021/04/19 02:05:59;;;;;;;6.85;5.30;;;10.20;99.90;;;;;;5070666;28;20031;-72
2021/04/19 02:08:46;;;;;;;5.95;4.15;;;10.30;99.90;;;;;;5070777;28;20027;-71
2021/04/19 02:11:43;;;;;;;5.15;4.22;;;10.20;99.90;;;;;;5070175;28;20028;-71
2021/04/19 02:14:09;;;;;;;5.18;3.97;;;10.20;99.90;;;;;;5069863;28;20057;-72
2021/04/19 02:16:46;;;;;;;4.50;4.10;;;10.20;99.90;;;;;;5052610;28;20038;-71
2021/04/19 02:19:36;;;;;;;4.63;3.65;;;10.30;99.90;;;;;;5052119;28;20055;-71
2021/04/19 02:22:09;;;;;;;5.53;3.70;;;10.30;99.90;;;;;;5052118;28;20092;-70
2021/04/19 02:24:38;;;;;;;5.18;3.58;;;10.30;99.90;;;;;;5070775;28;20046;-70
2021/04/19 02:27:18;;;;;;;5.00;4.38;;;10.30;99.90;;;;;;5051627;28;20032;-70
2021/04/19 02:29:47;;;;;;;4.50;4.10;;;10.30;99.90;;;;;;5052556;28;20104;-70
2021/04/19 02:32:24;;;;;;;5.43;4.65;;;10.30;99.90;;;;;;5070235;28;20017;-71
2021/04/19 02:34:53;;;;;;;5.38;4.43;;;10.30;99.90;;;;;;5070102;28;20032;-71
2021/04/19 02:37:21;;;;;;;5.72;4.72;;;10.30;99.90;;;;;;5069524;28;20060;-70
2021/04/19 02:39:49;;;;;;;6.63;5.70;;;10.20;99.90;;;;;;5052227;28;20041;-70
2021/04/19 02:42:16;;;;;;;5.90;5.22;;;10.10;99.90;;;;;;5069335;28;20036;-70
2021/04/19 02:44:46;;;;;;;8.02;6.00;;;10.10;99.90;;;;;;5052098;28;20481;-70
2021/04/19 02:47:14;;;;;;;6.68;5.93;;;10.10;99.90;;;;;;5051641;28;20136;-71
2021/04/19 02:49:41;;;;;;;6.00;5.30;;;10.20;99.90;;;;;;5052140;28;20036;-71
2021/04/19 02:52:08;;;;;;;7.70;5.47;;;10.10;99.90;;;;;;5069453;28;20075;-72
2021/04/19 02:54:38;;;;;;;7.93;6.13;;;10.10;99.90;;;;;;5070602;28;20040;-71
2021/04/19 02:57:24;;;;;;;7.90;6.40;;;10.10;99.90;;;;;;5071307;28;20028;-71
2021/04/19 02:59:51;;;;;;;7.03;6.25;;;10.10;99.90;;;;;;5056229;28;20063;-71
2021/04/19 03:02:20;;;;;;;11.02;7.30;;;10.10;99.90;;;;;;5055439;28;20024;-71
2021/04/19 03:04:47;;;;;;;7.82;6.85;;;10.00;99.90;;;;;;5055990;28;20024;-71
2021/04/19 03:07:14;;;;;;;7.88;7.07;;;10.00;99.90;;;;;;5073560;28;20111;-71
2021/04/19 03:09:45;;;;;;;8.27;7.00;;;10.00;99.90;;;;;;5073737;28;20024;-70
2021/04/19 03:12:14;;;;;;;10.55;7.85;;;10.00;99.90;;;;;;5055112;28;20127;-70
2021/04/19 03:14:48;;;;;;;10.93;7.70;;;10.00;99.90;;;;;;5074544;28;20093;-70
2021/04/19 03:17:15;;;;;;;8.82;7.45;;;10.00;99.90;;;;;;5092244;28;20122;-70
2021/04/19 03:19:54;;;;;;;10.05;7.80;;;10.00;99.90;;;;;;5093765;28;20020;-71
2021/04/19 03:22:20;;;;;;;10.45;8.98;;;10.00;99.90;;;;;;5092297;28;20123;-72
2021/04/19 03:24:47;;;;;;;10.88;8.55;;;10.00;99.90;;;;;;5092473;28;20046;-72
2021/04/19 03:27:15;;;;;;;11.88;8.70;;;10.00;99.90;;;;;;5091997;28;20430;-70
2021/04/19 03:29:41;;;;;;;10.32;8.60;;;9.90;99.90;;;;;;5092366;28;20107;-71
2021/04/19 03:32:12;;;;;;;10.90;9.07;;;9.80;99.90;;;;;;5093001;28;20024;-70
2021/04/19 03:34:40;;;;;;;10.77;8.87;;;9.90;99.90;;;;;;5092358;28;20036;-71
2021/04/19 03:37:24;;;;;;;11.15;9.05;;;9.80;99.90;;;;;;5093121;28;20036;-71
2021/04/19 03:40:06;;;;;;;12.63;9.00;;;9.80;99.90;;;;;;5093555;28;20071;-71
2021/04/19 03:42:34;;;;;;;13.35;10.00;;;9.90;99.90;;;;;;5093815;28;20107;-71
2021/04/19 03:45:04;;;;;;;10.27;9.15;;;9.80;99.90;;;;;;5092135;28;20074;-72
2021/04/19 03:47:31;;;;;;;11.77;9.80;;;9.80;99.90;;;;;;5093094;28;20024;-71
2021/04/19 03:49:59;;;;;;;13.65;10.57;;;9.80;99.90;;;;;;5093510;28;20187;-70
2021/04/19 03:52:31;;;;;;;12.43;9.73;;;9.80;99.90;;;;;;5091407;28;20466;-71
2021/04/19 03:54:59;;;;;;;12.20;10.05;;;9.90;99.90;;;;;;5093557;28;20028;-71
2021/04/19 03:57:26;;;;;;;13.75;10.93;;;9.80;99.90;;;;;;5091337;28;20366;-70
2021/04/19 03:59:56;;;;;;;12.43;10.38;;;9.90;99.90;;;;;;5093227;28;20076;-71
2021/04/19 04:02:24;;;;;;;13.88;11.55;;;9.80;99.90;;;;;;5092273;28;20034;-71
2021/04/19 04:04:50;;;;;;;11.90;10.52;;;10.00;99.90;;;;;;5091338;28;20024;-71
2021/04/19 04:07:17;;;;;;;16.08;11.45;;;9.90;99.90;;;;;;5091941;28;20031;-71
2021/04/19 04:09:44;;;;;;;14.63;10.68;;;10.00;99.90;;;;;;5091644;28;20024;-72
2021/04/19 04:12:10;;;;;;;13.50;10.70;;;10.00;99.90;;;;;;5092346;28;20023;-71
2021/04/19 04:14:37;;;;;;;13.63;10.88;;;9.90;99.90;;;;;;5081595;28;20103;-71
2021/04/19 04:17:03;;;;;;;13.50;10.38;;;9.80;99.90;;;;;;5054369;28;20127;-70
2021/04/19 04:19:29;;;;;;;12.07;10.80;;;9.90;99.90;;;;;;5054101;28;20039;-71
2021/04/19 04:21:56;;;;;;;14.88;10.70;;;9.90;99.90;;;;;;5053734;28;20385;-69
2021/04/19 04:24:22;;;;;;;13.52;11.57;;;9.90;99.90;;;;;;5053689;28;20064;-69
2021/04/19 04:26:48;;;;;;;14.15;11.13;;;9.80;99.90;;;;;;5072930;28;20367;-70
2021/04/19 04:29:13;;;;;;;15.32;11.45;;;9.80;99.90;;;;;;5053874;28;20028;-70
2021/04/19 04:31:39;;;;;;;14.63;11.75;;;9.70;99.90;;;;;;5054449;28;20381;-71
2021/04/19 04:34:05;;;;;;;14.88;12.00;;;9.70;99.90;;;;;;5072296;28;20032;-72
2021/04/19 04:36:30;;;;;;;14.23;11.38;;;9.70;99.90;;;;;;5071365;28;20315;-72
2021/04/19 04:38:56;;;;;;;13.82;11.57;;;9.60;99.90;;;;;;5072100;28;20032;-71
2021/04/19 04:41:21;;;;;;;15.13;12.32;;;9.60;99.90;;;;;;5071428;28;20377;-71
2021/04/19 04:43:51;;;;;;;17.20;13.77;;;9.50;99.90;;;;;;5054087;28;20071;-71
2021/04/19 04:46:28;;;;;;;17.48;13.13;;;9.40;99.90;;;;;;5071656;28;20081;-71
2021/04/19 04:49:02;;;;;;;15.55;12.57;;;9.40;99.90;;;;;;5071971;28;20466;-71
2021/04/19 04:51:30;;;;;;;17.35;12.35;;;9.40;99.90;;;;;;5072073;28;20129;-73
2021/04/19 04:54:02;;;;;;;18.02;12.18;;;9.20;99.90;;;;;;5054030;28;20469;-68
2021/04/19 04:56:32;;;;;;;17.48;12.98;;;9.20;99.90;;;;;;5071394;28;20060;-69
2021/04/19 04:58:59;;;;;;;16.00;12.55;;;9.20;99.90;;;;;;5054576;28;20036;-71
2021/04/19 05:01:27;;;;;;;16.90;12.13;;;9.30;99.90;;;;;;5053244;28;20027;-71
2021/04/19 05:03:54;;;;;;;16.13;11.88;;;9.20;99.90;;;;;;5071898;28;20052;-71
2021/04/19 05:06:19;;;;;;;14.75;11.88;;;9.20;99.90;;;;;;5053341;28;20161;-71
2021/04/19 05:08:47;;;;;;;17.33;12.50;;;9.20;99.90;;;;;;5053975;28;20455;-72
2021/04/19 05:11:14;;;;;;;14.80;11.35;;;9.30;99.90;;;;;;5053065;28;20032;-72
2021/04/19 05:13:40;;;;;;;18.10;12.00;;;9.20;99.90;;;;;;5071321;28;20569;-72
2021/04/19 05:16:06;;;;;;;16.40;12.52;;;9.20;99.90;;;;;;5071433;28;20068;-72
2021/04/19 05:18:33;;;;;;;17.02;12.23;;;9.20;99.90;;;;;;5052840;28;20121;-72
2021/04/19 05:20:58;;;;;;;14.63;11.18;;;9.30;99.90;;;;;;5053270;28;20029;-72
2021/04/19 05:23:25;;;;;;;16.00;11.65;;;9.40;99.90;;;;;;5054143;28;20377;-73
2021/04/19 05:25:51;;;;;;;13.63;10.90;;;9.40;99.90;;;;;;5072779;28;20498;-71
2021/04/19 05:28:20;;;;;;;15.10;10.68;;;9.40;99.90;;;;;;5053893;28;20035;-72
2021/04/19 05:30:48;;;;;;;14.77;11.02;;;9.40;99.90;;;;;;5054310;28;20046;-72
2021/04/19 05:33:14;;;;;;;13.90;10.88;;;9.50;99.90;;;;;;5053719;28;20064;-72
2021/04/19 05:35:40;;;;;;;15.70;11.48;;;9.50;99.90;;;;;;5054142;28;20139;-73
2021/04/19 05:38:07;;;;;;;14.65;11.10;;;9.50;99.90;;;;;;5053795;28;20086;-73
2021/04/19 05:40:35;;;;;;;14.02;10.65;;;9.60;99.90;;;;;;5053388;28;20235;-72
2021/04/19 05:43:03;;;;;;;14.07;10.52;;;9.60;99.90;;;;;;5053181;28;20021;-72
2021/04/19 05:45:29;;;;;;;14.82;11.10;;;9.60;99.90;;;;;;5070552;28;20028;-72
2021/04/19 05:47:55;;;;;;;17.55;10.55;;;9.70;99.90;;;;;;5070359;28;20060;-72
2021/04/19 05:50:23;;;;;;;16.00;11.60;;;9.70;99.90;;;;;;5070830;28;20024;-76
2021/04/19 05:52:52;;;;;;;16.50;11.80;;;9.60;99.90;;;;;;5053200;28;20119;-72
2021/04/19 05:55:21;;;;;;;14.85;11.05;;;9.60;99.90;;;;;;5052007;28;20124;-72
2021/04/19 05:57:55;;;;;;;14.52;10.40;;;9.80;99.90;;;;;;5070998;28;20127;-72
2021/04/19 06:00:33;;;;;;;14.48;10.70;;;10.10;99.90;;;;;;5051847;28;20363;-72
2021/04/19 06:03:12;;;;;;;13.18;10.00;;;10.10;99.90;;;;;;5052678;28;20032;-72
2021/04/19 06:06:03;;;;;;;17.30;10.98;;;10.20;99.90;;;;;;5070222;28;20514;-72
2021/04/19 06:08:38;;;;;;;12.90;10.60;;;10.20;99.90;;;;;;5002359;28;20036;-72
2021/04/19 06:11:19;;;;;;;14.15;10.80;;;10.20;99.90;;;;;;5070911;28;20131;-73
2021/04/19 06:13:47;;;;;;;14.25;10.23;;;10.00;99.90;;;;;;5057243;28;20048;-72
2021/04/19 06:16:15;;;;;;;12.98;10.27;;;10.10;99.90;;;;;;5091939;28;20042;-72
2021/04/19 06:18:44;;;;;;;13.48;10.02;;;10.20;99.90;;;;;;5091683;28;20165;-72
2021/04/19 06:21:12;;;;;;;16.10;10.15;;;10.50;99.90;;;;;;5090069;28;20119;-73
2021/04/19 06:23:39;;;;;;;13.52;9.57;;;10.60;99.90;;;;;;5090173;28;20032;-72
2021/04/19 06:26:07;;;;;;;12.70;9.18;;;10.50;99.90;;;;;;5090638;28;20032;-72
2021/04/19 06:28:33;;;;;;;12.27;9.02;;;10.40;99.90;;;;;;5089408;28;20028;-72
2021/04/19 06:31:00;;;;;;;13.35;9.90;;;10.50;99.90;;;;;;5091898;28;20115;-72
2021/04/19 06:33:26;;;;;;;13.43;9.35;;;10.40;99.90;;;;;;5094217;28;20122;-72
2021/04/19 06:35:52;;;;;;;12.45;9.77;;;10.10;99.90;;;;;;5093457;28;20032;-72
2021/04/19 06:38:18;;;;;;;10.57;8.48;;;10.00;99.90;;;;;;5092649;28;20028;-73
2021/04/19 06:40:46;;;;;;;11.05;9.05;;;10.00;99.90;;;;;;5094662;28;20020;-72
2021/04/19 06:43:12;;;;;;;12.95;9.27;;;9.80;99.90;;;;;;5093173;28;20449;-72
2021/04/19 06:45:39;;;;;;;10.68;8.50;;;9.90;99.90;;;;;;5092327;28;20036;-72
2021/04/19 06:48:08;;;;;;;12.15;9.00;;;9.90;99.90;;;;;;5093225;28;20354;-71
2021/04/19 06:50:34;;;;;;;12.55;10.13;;;10.10;99.90;;;;;;5084448;28;20115;-72
2021/04/19 06:53:01;;;;;;;18.27;11.93;;;9.80;99.90;;;;;;5073617;28;20032;-72
2021/04/19 06:55:27;;;;;;;12.80;8.63;;;9.80;99.90;;;;;;5071805;28;20039;-73
2021/04/19 06:57:55;;;;;;;13.95;9.20;;;9.80;99.90;;;;;;5071803;28;20039;-73
2021/04/19 07:00:23;;;;;;;12.10;9.32;;;9.90;99.90;;;;;;5073198;28;20024;-75
2021/04/19 07:02:55;;;;;;;15.20;10.23;;;9.90;99.90;;;;;;5071965;28;20029;-71
2021/04/19 07:05:25;;;;;;;14.48;10.00;;;9.90;99.90;;;;;;5071466;28;20028;-76
2021/04/19 07:08:10;;;;;;;19.40;10.88;;;10.10;99.90;;;;;;5074973;28;20386;-72
2021/04/19 07:10:36;;;;;;;19.77;9.50;;;10.00;99.90;;;;;;5073279;28;20118;-74
2021/04/19 07:13:11;;;;;;;20.92;7.50;;;10.20;99.90;;;;;;5073423;28;20116;-62
2021/04/19 07:15:40;;;;;;;13.77;10.43;;;11.00;99.90;;;;;;5071291;28;20493;-63
2021/04/19 07:18:07;;;;;;;13.23;8.85;;;11.40;99.90;;;;;;5073290;28;20102;-77
2021/04/19 07:20:33;;;;;;;12.13;8.93;;;11.50;99.90;;;;;;5071262;28;20488;-76
2021/04/19 07:23:00;;;;;;;17.33;9.05;;;11.60;99.90;;;;;;5071979;28;20032;-76
2021/04/19 07:25:26;;;;;;;13.38;10.30;;;11.90;99.90;;;;;;5072470;28;20028;-76
2021/04/19 07:27:53;;;;;;;13.00;8.13;;;12.00;99.90;;;;;;5072091;28;20102;-75
2021/04/19 07:30:19;;;;;;;14.55;9.13;;;12.10;99.90;;;;;;5073324;28;20141;-75
2021/04/19 07:32:44;;;;;;;11.23;8.32;;;11.90;99.90;;;;;;5071072;28;20334;-70
2021/04/19 07:35:11;;;;;;;10.55;8.65;;;11.60;99.90;;;;;;5073361;28;20120;-76
2021/04/19 07:37:37;;;;;;;12.70;7.95;;;11.60;99.90;;;;;;5071378;28;20028;-75
2021/04/19 07:40:05;;;;;;;11.65;8.45;;;11.60;99.90;;;;;;5071437;28;20454;-75
2021/04/19 07:42:33;;;;;;;14.65;8.48;;;11.50;99.90;;;;;;5070921;28;20416;-78
2021/04/19 07:44:59;;;;;;;10.73;8.55;;;11.50;99.90;;;;;;5071831;28;20372;-76
2021/04/19 07:47:38;;;;;;;16.13;9.05;;;11.50;99.90;;;;;;5071290;28;20020;-76
2021/04/19 07:50:19;;;;;;;15.63;9.32;;;11.60;99.90;;;;;;5072092;28;20021;-76
2021/04/19 07:52:59;;;;;;;12.43;9.45;;;11.70;99.90;;;;;;5071312;28;20119;-76
2021/04/19 07:55:31;;;;;;;12.75;9.55;;;11.70;99.90;;;;;;5070967;28;20063;-75
2021/04/19 07:57:57;;;;;;;10.73;8.43;;;11.70;99.90;;;;;;5071833;28;20331;-76
2021/04/19 08:00:34;;;;;;;12.43;7.45;;;11.80;99.90;;;;;;5071170;28;20382;-76
2021/04/19 08:03:01;;;;;;;11.50;8.50;;;11.90;99.90;;;;;;5071206;28;20021;-76
2021/04/19 08:05:53;;;;;;;12.23;7.88;;;11.70;99.90;;;;;;5071148;28;20366;-73
2021/04/19 08:08:29;;;;;;;12.57;8.25;;;11.80;99.90;;;;;;5071435;28;20024;-75
2021/04/19 08:11:12;;;;;;;11.65;8.23;;;11.80;99.90;;;;;;5073101;28;20021;-74
2021/04/19 08:13:39;;;;;;;17.92;8.65;;;11.70;99.90;;;;;;5067759;28;20484;-74
2021/04/19 08:16:26;;;;;;;17.05;9.45;;;11.70;99.90;;;;;;5034782;28;20099;-74
2021/04/19 08:19:02;;;;;;;11.05;8.20;;;11.50;99.90;;;;;;5035014;28;20050;-75
2021/04/19 08:21:29;;;;;;;10.50;8.07;;;11.50;99.90;;;;;;5051932;28;20186;-75
2021/04/19 08:23:55;;;;;;;14.15;9.05;;;11.60;99.90;;;;;;5034678;28;20036;-75
2021/04/19 08:26:21;;;;;;;11.07;8.00;;;11.70;99.90;;;;;;5034728;28;20071;-75
2021/04/19 08:28:51;;;;;;;12.32;8.63;;;11.60;99.90;;;;;;5034297;28;20056;-75
2021/04/19 08:31:17;;;;;;;11.70;8.20;;;11.80;99.90;;;;;;5034555;28;20139;-75
2021/04/19 08:33:44;;;;;;;11.35;7.50;;;12.00;99.90;;;;;;5033857;28;20330;-75
2021/04/19 08:36:12;;;;;;;11.25;7.65;;;12.00;99.90;;;;;;5034453;28;20060;-74
2021/04/19 08:38:38;;;;;;;11.40;7.68;;;12.10;99.90;;;;;;5033779;28;20068;-75
2021/04/19 08:41:05;;;;;;;8.98;7.10;;;12.30;99.90;;;;;;5034021;28;20131;-76
2021/04/19 08:43:36;;;;;;;12.18;6.97;;;12.40;99.90;;;;;;5033366;28;20114;-75
2021/04/19 08:46:04;;;;;;;9.32;7.25;;;13.10;99.90;;;;;;5034382;28;20037;-77
2021/04/19 08:48:31;;;;;;;7.63;6.55;;;13.20;99.90;;;;;;5033807;28;20471;-76
2021/04/19 08:51:03;;;;;;;7.97;6.35;;;13.40;99.90;;;;;;5034420;28;20025;-76
2021/04/19 08:53:29;;;;;;;9.43;6.63;;;13.60;99.90;;;;;;5033534;28;20029;-76
2021/04/19 08:55:55;;;;;;;10.75;7.00;;;13.80;99.90;;;;;;5051031;28;20443;-75
2021/04/19 08:58:21;;;;;;;9.95;7.03;;;14.10;99.90;;;;;;5034015;28;20032;-76
2021/04/19 09:00:51;;;;;;;12.48;6.93;;;14.10;99.90;;;;;;5033327;28;20025;-76
2021/04/19 09:03:18;;;;;;;9.68;7.20;;;14.10;99.90;;;;;;5033819;28;20476;-77
2021/04/19 09:05:45;;;;;;;6.93;6.22;;;13.40;99.90;;;;;;5033278;28;20029;-75
2021/04/19 09:08:15;;;;;;;8.20;7.18;;;13.50;99.90;;;;;;5051845;28;20025;-76
2021/04/19 09:11:06;;;;;;;11.35;6.40;;;13.80;99.90;;;;;;5033169;28;20025;-76
2021/04/19 09:13:42;;;;;;;15.20;7.07;;;13.80;99.90;;;;;;5032866;28;20032;-76
2021/04/19 09:16:17;;;;;;;9.38;6.95;;;14.30;99.90;;;;;;5051722;28;20371;-77
2021/04/19 09:19:01;;;;;;;10.43;6.70;;;;;;;;;;5051125;28;20025;-77
2021/04/19 09:21:41;;;;;;;9.02;5.90;;;14.80;99.90;;;;;;5033242;28;20077;-76
2021/04/19 09:24:09;;;;;;;11.63;6.13;;;14.90;99.90;;;;;;5033618;28;20033;-77
2021/04/19 09:26:45;;;;;;;9.65;6.82;;;14.20;99.90;;;;;;5033180;28;20382;-77
2021/04/19 09:29:32;;;;;;;9.80;6.35;;;13.70;99.90;;;;;;5051513;28;20108;-77
2021/04/19 09:32:06;;;;;;;7.72;5.72;;;13.80;99.90;;;;;;5033475;28;20382;-78
2021/04/19 09:34:49;;;;;;;12.55;7.50;;;14.80;99.90;;;;;;5050562;28;20060;-78
2021/04/19 09:37:21;;;;;;;7.50;5.93;;;15.90;99.80;;;;;;5033360;28;20047;-78
2021/04/19 09:39:57;;;;;;;7.00;5.82;;;15.60;98.80;;;;;;5032652;28;20307;-76
2021/04/19 09:43:04;;;;;;;9.20;5.68;;;16.00;98.40;;;;;;5033306;28;20120;-77
2021/04/19 09:45:45;;;;;;;6.65;5.30;;;16.10;98.40;;;;;;5050210;28;20100;-76
2021/04/19 09:48:30;;;;;;;6.63;5.50;;;15.50;99.20;;;;;;5032983;28;20032;-76
2021/04/19 09:51:00;;;;;;;7.88;4.68;;;15.00;98.90;;;;;;5032714;28;20286;-75
2021/04/19 09:53:28;;;;;;;5.50;4.55;;;15.10;99.80;;;;;;5033046;28;20029;-76
2021/04/19 09:55:54;;;;;;;5.28;4.78;;;14.60;99.30;;;;;;5033968;28;20346;-75
2021/04/19 09:58:20;;;;;;;7.35;4.78;;;14.10;99.90;;;;;;5033800;28;20111;-76
2021/04/19 10:00:54;;;;;;;5.57;4.93;;;14.80;99.90;;;;;;5032545;28;20029;-76
2021/04/19 10:03:20;;;;;;;5.70;4.10;;;15.20;99.00;;;;;;5033350;28;20028;-76
2021/04/19 10:05:48;;;;;;;7.05;5.13;;;15.50;98.90;;;;;;5050152;28;20112;-76
2021/04/19 10:08:14;;;;;;;8.65;5.72;;;15.20;98.70;;;;;;5050345;28;20021;-76
2021/04/19 10:10:42;;;;;;;8.02;4.68;;;15.50;99.10;;;;;;5031995;28;20078;-77
2021/04/19 10:13:08;;;;;;;6.13;4.82;;;15.70;98.80;;;;;;5032625;28;20067;-76
2021/04/19 10:15:33;;;;;;;5.80;5.20;;;15.60;98.20;;;;;;5065154;28;20163;-75
2021/04/19 10:18:10;;;;;;;5.97;4.88;;;15.30;98.00;;;;;;5069372;28;20052;-76
2021/04/19 10:20:37;;;;;;;6.70;5.15;;;15.20;98.70;;;;;;5070230;28;20422;-77
2021/04/19 10:23:10;;;;;;;6.28;5.68;;;15.20;98.40;;;;;;5069182;28;20461;-77
2021/04/19 10:25:46;;;;;;;8.10;6.18;;;14.20;99.40;;;;;;5068725;28;20441;-76
2021/04/19 10:28:24;;;;;;;7.07;5.75;;;13.90;99.90;;;;;;5070617;28;20459;-75
2021/04/19 10:30:50;;;;;;;7.88;6.15;;;13.40;99.90;;;;;;5069850;28;20149;-77
2021/04/19 10:33:25;;;;;;;12.38;5.85;;;13.50;99.90;;;;;;5068979;28;20024;-76
2021/04/19 10:35:51;;;;;;;6.30;5.30;;;13.90;99.90;;;;;;5069407;28;20060;-76
2021/04/19 10:38:17;;;;;;;6.50;5.35;;;13.80;99.90;;;;;;5069915;28;20450;-76
2021/04/19 10:40:43;;;;;;;6.78;5.22;;;14.00;99.90;;;;;;5068071;28;20378;-75
2021/04/19 10:43:12;;;;;;;6.35;5.00;;;13.80;99.90;;;;;;5068908;28;20123;-76
2021/04/19 10:45:42;;;;;;;6.60;4.60;;;14.00;99.80;;;;;;5069732;28;20519;-75
2021/04/19 10:48:20;;;;;;;6.70;5.40;;;14.10;99.90;;;;;;5069851;28;20385;-75
2021/04/19 10:50:49;;;;;;;6.78;4.88;;;14.30;99.30;;;;;;5070229;28;20041;-75
2021/04/19 10:53:34;;;;;;;8.45;4.75;;;14.40;99.30;;;;;;5069772;28;20031;-76
2021/04/19 10:56:04;;;;;;;6.07;4.80;;;14.80;98.40;;;;;;5070115;28;20119;-75
2021/04/19 10:58:31;;;;;;;5.82;4.65;;;15.00;97.80;;;;;;5068209;28;20091;-77
2021/04/19 11:00:58;;;;;;;7.28;5.32;;;15.20;97.70;;;;;;5069907;28;20074;-77
2021/04/19 11:03:24;;;;;;;7.95;5.65;;;14.50;98.10;;;;;;5070045;28;20025;-76
2021/04/19 11:05:50;;;;;;;6.82;5.25;;;14.60;98.20;;;;;;5069757;28;20136;-76
2021/04/19 11:08:16;;;;;;;5.57;4.70;;;14.60;97.80;;;;;;5068243;28;20032;-76
2021/04/19 11:10:41;;;;;;;6.10;4.53;;;14.70;97.60;;;;;;5069470;28;20104;-76
2021/04/19 11:13:09;;;;;;;7.47;4.78;;;14.20;98.00;;;;;;5070279;28;20049;-76
2021/04/19 11:15:43;;;;;;;5.82;4.88;;;14.20;98.40;;;;;;5067559;28;20049;-78
2021/04/19 11:18:27;;;;;;;8.52;5.07;;;14.60;97.70;;;;;;5070332;28;20037;-77
2021/04/19 11:20:55;;;;;;;5.78;4.57;;;14.70;97.90;;;;;;5071733;28;20054;-76
2021/04/19 11:23:24;;;;;;;9.32;4.30;;;14.60;97.10;;;;;;5072067;28;20504;-77
2021/04/19 11:25:50;;;;;;;6.45;4.43;;;14.80;96.80;;;;;;5071242;28;20056;-76
2021/04/19 11:28:17;;;;;;;9.68;5.75;;;15.00;97.20;;;;;;5073017;28;20040;-74
2021/04/19 11:30:43;;;;;;;5.60;4.40;;;15.20;96.60;;;;;;5072953;28;20087;-75
2021/04/19 11:33:25;;;;;;;4.55;4.03;;;15.00;96.90;;;;;;5073351;28;20431;-74
2021/04/19 11:35:56;;;;;;;;;;;14.50;97.40;;;;;;5071795;28;20142;-76
2021/04/19 11:38:25;;;;;;;4.70;4.07;;;14.70;97.50;;;;;;5071781;28;20234;-75
2021/04/19 11:41:02;;;;;;;5.57;4.55;;;15.10;96.70;;;;;;5071088;28;20044;-73
2021/04/19 11:43:36;;;;;;;5.80;4.90;;;14.90;96.90;;;;;;5071799;28;20068;-74
2021/04/19 11:46:09;;;;;;;8.65;6.00;;;15.10;97.50;;;;;;5071894;28;20080;-74
2021/04/19 11:48:37;;;;;;;6.47;5.35;;;15.30;97.50;;;;;;5070728;28;20024;-77
2021/04/19 11:51:06;;;;;;;12.10;6.53;;;15.60;97.40;;;;;;5073251;28;20071;-77
2021/04/19 11:53:34;;;;;;;7.53;5.18;;;15.90;97.20;;;;;;5071473;28;20386;-76
2021/04/19 11:56:00;;;;;;;14.10;6.15;;;15.90;96.60;;;;;;5071203;28;20039;-75
2021/04/19 11:58:26;;;;;;;7.07;5.60;;;16.10;96.60;;;;;;5071616;28;20446;-75
2021/04/19 12:00:55;;;;;;;7.60;6.28;;;16.00;96.80;;;;;;5072320;28;20052;-77
2021/04/19 12:03:24;;;;;;;7.90;5.85;;;16.00;96.40;;;;;;5072338;28;20493;-77
2021/04/19 12:05:50;;;;;;;7.85;5.97;;;15.80;96.10;;;;;;5070829;28;20139;-76
2021/04/19 12:08:16;;;;;;;9.90;5.93;;;15.70;96.50;;;;;;5071560;28;20103;-76
2021/04/19 12:10:42;;;;;;;7.63;5.90;;;15.40;96.60;;;;;;5071007;28;20020;-76
2021/04/19 12:13:13;;;;;;;14.18;6.13;;;15.40;97.20;;;;;;5071409;28;20359;-75
2021/04/19 12:15:43;;;;;;;9.25;5.55;;;15.20;97.10;;;;;;5070627;28;20406;-75
2021/04/19 12:18:10;;;;;;;7.30;6.03;;;15.10;97.00;;;;;;5072682;28;20068;-75
2021/04/19 12:20:36;;;;;;;6.65;5.53;;;15.00;97.20;;;;;;5072408;28;20435;-75
2021/04/19 12:23:02;;;;;;;7.43;5.90;;;15.00;97.20;;;;;;5072191;28;20071;-75
2021/04/19 12:25:28;;;;;;;6.68;5.10;;;14.90;97.10;;;;;;5070936;28;20060;-76
2021/04/19 12:27:54;;;;;;;7.38;6.07;;;14.80;97.00;;;;;;5071896;28;20025;-77
2021/04/19 12:30:20;;;;;;;9.75;6.10;;;14.70;97.00;;;;;;5070888;28;20526;-79
2021/04/19 12:32:46;;;;;;;8.75;5.80;;;14.50;97.40;;;;;;5071026;28;20025;-79
2021/04/19 12:35:12;;;;;;;6.15;5.05;;;14.50;97.10;;;;;;5071364;28;20036;-79
2021/04/19 12:37:38;;;;;;;6.93;4.93;;;14.40;97.50;;;;;;5070652;28;20094;-73
2021/04/19 12:40:04;;;;;;;13.32;6.85;;;14.30;97.40;;;;;;5072277;28;20025;-78
2021/04/19 12:42:30;;;;;;;8.20;6.18;;;14.10;97.60;;;;;;5070760;28;20051;-78
2021/04/19 12:44:56;;;;;;;9.50;6.65;;;14.20;97.70;;;;;;5071781;28;20065;-77
2021/04/19 12:47:21;;;;;;;8.88;5.75;;;14.20;98.00;;;;;;5070785;28;20044;-77
2021/04/19 12:49:47;;;;;;;10.85;6.32;;;14.30;97.80;;;;;;5071676;28;20166;-77
2021/04/19 12:52:13;;;;;;;7.80;5.60;;;14.30;97.70;;;;;;5071191;28;20029;-77
2021/04/19 12:54:39;;;;;;;6.50;4.72;;;14.30;97.90;;;;;;5069650;28;20076;-70